Time;durP1;ratioP1;P1;durP2;ratioP2;P2;SDS_P1;SDS_P2;PMS_P1;PMS_P2;Temp;Humidity;BMP_temperature;BMP_pressure;BME280_temperature;BME280_humidity;BME280_pressure;Samples;Min_cycle;Max_cycle;Signal;HPM_P1;HPM_P2
2022/01/25 04:01:06;;;;;;;4.43;3.70;;;3.40;74.80;;;;;;5869872;23;20507;-77
2022/01/25 04:03:38;;;;;;;4.63;4.20;;;3.30;75.40;;;;;;4996488;28;20449;-77
2022/01/25 04:06:05;;;;;;;4.80;4.27;;;3.20;75.80;;;;;;4997223;28;20888;-78
2022/01/25 04:08:33;;;;;;;4.23;3.83;;;3.20;76.20;;;;;;4997543;28;20875;-77
2022/01/25 04:11:00;;;;;;;5.77;4.20;;;3.20;76.20;;;;;;4997490;28;20473;-77
2022/01/25 04:13:27;;;;;;;5.20;4.70;;;3.10;76.70;;;;;;4997511;28;20531;-77
2022/01/25 04:15:57;;;;;;;4.80;4.33;;;3.20;76.30;;;;;;4998786;28;20444;-77
2022/01/25 04:18:34;;;;;;;4.23;3.77;;;3.20;76.00;;;;;;4996915;28;20817;-77
2022/01/25 04:21:09;;;;;;;4.40;4.00;;;3.20;75.70;;;;;;4997649;28;20488;-77
2022/01/25 04:26:20;;;;;;;4.73;4.10;;;3.20;75.90;;;;;;4997385;28;20453;-77
2022/01/25 04:28:46;;;;;;;4.60;4.20;;;3.10;76.00;;;;;;4997465;28;20452;-77
2022/01/25 04:31:16;;;;;;;4.57;4.17;;;3.10;76.00;;;;;;4997528;28;20837;-77
2022/01/25 04:33:56;;;;;;;4.67;4.10;;;3.10;76.10;;;;;;4997265;28;20909;-77
2022/01/25 04:36:50;;;;;;;4.90;4.23;;;3.10;76.00;;;;;;4997579;28;20445;-78
2022/01/25 04:50:28;;;;;;;5.03;4.53;;;3.00;76.60;;;;;;4993885;28;20985;-77
2022/01/25 04:53:04;;;;;;;4.93;4.43;;;2.90;77.10;;;;;;4994154;28;20496;-77
2022/01/25 04:55:36;;;;;;;5.60;4.50;;;2.90;77.70;;;;;;4993717;28;20916;-77
2022/01/25 04:58:09;;;;;;;5.40;4.90;;;2.70;78.30;;;;;;4994151;28;20500;-78
2022/01/25 05:00:37;;;;;;;5.23;4.27;;;2.60;78.60;;;;;;4993675;28;20544;-77
2022/01/25 05:03:10;;;;;;;5.13;4.63;;;2.60;79.00;;;;;;4993991;28;20492;-77
2022/01/25 05:05:50;;;;;;;5.77;5.10;;;2.50;79.90;;;;;;4993734;28;20932;-77
2022/01/25 05:08:28;;;;;;;5.93;4.93;;;2.60;79.40;;;;;;4994182;28;20456;-78
2022/01/25 05:11:04;;;;;;;5.93;5.33;;;2.50;79.90;;;;;;4994182;28;20472;-78
2022/01/25 05:13:40;;;;;;;6.03;5.43;;;2.40;80.10;;;;;;4997950;28;20472;-78
2022/01/25 05:16:13;;;;;;;6.03;5.43;;;2.40;80.80;;;;;;4998026;28;20880;-78
2022/01/25 05:18:43;;;;;;;5.90;5.30;;;2.60;80.40;;;;;;4997604;28;20433;-78
2022/01/25 05:23:57;;;;;;;5.40;4.43;;;2.80;79.30;;;;;;4997446;28;20541;-78
2022/01/25 05:26:25;;;;;;;5.50;5.00;;;2.90;78.50;;;;;;4997208;28;20865;-78
2022/01/25 05:28:52;;;;;;;5.47;4.97;;;2.90;78.40;;;;;;4997676;28;20457;-79
2022/01/25 05:31:18;;;;;;;5.37;4.87;;;2.90;78.60;;;;;;4997377;28;20469;-79
2022/01/25 05:33:45;;;;;;;5.07;4.57;;;2.80;78.50;;;;;;4998148;28;20528;-77
2022/01/25 05:36:13;;;;;;;5.87;5.27;;;2.90;78.40;;;;;;4997289;28;20464;-77
2022/01/25 05:38:42;;;;;;;6.03;5.43;;;2.90;78.00;;;;;;4997145;28;20481;-77
2022/01/25 05:41:09;;;;;;;5.73;5.10;;;2.90;77.70;;;;;;4996685;28;20988;-77
2022/01/25 05:44:13;;;;;;;4.70;4.20;;;3.00;77.60;;;;;;4997073;28;20835;-77
2022/01/25 05:46:45;;;;;;;4.97;4.43;;;3.00;77.30;;;;;;4996675;28;20995;-77
2022/01/25 05:49:12;;;;;;;5.40;4.87;;;3.10;77.10;;;;;;4997045;28;20444;-77
2022/01/25 05:51:40;;;;;;;6.03;5.43;;;3.10;77.00;;;;;;4996804;28;20470;-77
2022/01/25 05:54:07;;;;;;;5.20;4.70;;;3.10;76.90;;;;;;4996743;28;20452;-78
2022/01/25 05:56:34;;;;;;;5.23;4.73;;;3.10;76.70;;;;;;4996998;28;20449;-77
2022/01/25 05:59:00;;;;;;;5.00;4.50;;;3.10;76.70;;;;;;4996745;28;20461;-78
2022/01/25 06:01:27;;;;;;;5.70;5.13;;;3.10;76.60;;;;;;4996435;28;20546;-78
2022/01/25 06:03:54;;;;;;;5.37;4.87;;;3.10;76.60;;;;;;4996408;28;20845;-77
2022/01/25 06:06:21;;;;;;;5.33;4.83;;;3.10;76.50;;;;;;4996677;28;20471;-78
2022/01/25 06:08:49;;;;;;;5.27;4.77;;;3.10;76.40;;;;;;4996364;28;20806;-78
2022/01/25 06:11:15;;;;;;;5.67;5.17;;;3.10;76.20;;;;;;4996436;28;20592;-77
2022/01/25 06:13:42;;;;;;;4.97;4.50;;;3.10;76.00;;;;;;4998008;28;20457;-77
2022/01/25 06:16:09;;;;;;;4.50;4.10;;;3.10;76.00;;;;;;4999759;28;20456;-78
2022/01/25 06:18:36;;;;;;;6.27;4.60;;;3.10;76.10;;;;;;4999661;28;20460;-77
2022/01/25 06:21:02;;;;;;;4.67;4.17;;;3.00;76.10;;;;;;5000242;28;20493;-78
2022/01/25 06:23:29;;;;;;;4.60;4.00;;;3.00;76.70;;;;;;4998746;28;20453;-77
2022/01/25 06:25:57;;;;;;;5.60;5.10;;;3.00;76.70;;;;;;4999353;28;20456;-78
2022/01/25 06:28:24;;;;;;;5.07;4.57;;;3.00;76.30;;;;;;5002050;28;20453;-77
2022/01/25 06:30:51;;;;;;;4.80;4.27;;;3.00;76.20;;;;;;4998740;28;20469;-77
2022/01/25 06:33:17;;;;;;;5.73;5.13;;;3.00;76.20;;;;;;4999596;28;20940;-77
2022/01/25 06:35:45;;;;;;;5.13;4.60;;;3.00;76.20;;;;;;5000133;28;20449;-77
2022/01/25 06:38:12;;;;;;;4.43;4.03;;;3.00;75.70;;;;;;4999953;28;20488;-78
2022/01/25 06:40:39;;;;;;;5.40;4.90;;;3.00;75.80;;;;;;4999560;28;20849;-77
2022/01/25 06:43:07;;;;;;;5.10;4.50;;;3.00;75.90;;;;;;5000212;28;20453;-77
2022/01/25 06:45:39;;;;;;;4.63;4.20;;;2.90;75.80;;;;;;5000261;28;20456;-77
2022/01/25 06:48:06;;;;;;;5.10;4.60;;;2.90;75.80;;;;;;5000967;28;20453;-77
2022/01/25 06:50:34;;;;;;;5.10;4.60;;;2.90;75.50;;;;;;5000245;28;20441;-77
2022/01/25 06:53:01;;;;;;;4.93;4.20;;;2.90;75.30;;;;;;5000698;28;20822;-77
2022/01/25 06:55:28;;;;;;;5.93;4.90;;;2.90;75.20;;;;;;5000976;28;20445;-78
2022/01/25 06:57:55;;;;;;;5.50;5.00;;;2.80;75.30;;;;;;5000711;28;20478;-77
2022/01/25 07:00:24;;;;;;;6.20;5.60;;;2.90;75.20;;;;;;4999860;28;20999;-77
2022/01/25 07:02:51;;;;;;;4.87;4.40;;;2.90;75.10;;;;;;5000624;28;20464;-76
2022/01/25 07:05:18;;;;;;;6.17;5.57;;;2.90;74.90;;;;;;5000240;28;20449;-77
2022/01/25 07:07:47;;;;;;;5.37;4.87;;;2.90;75.10;;;;;;5000160;28;20818;-77
2022/01/25 07:10:14;;;;;;;4.90;4.40;;;3.00;75.10;;;;;;5000428;28;20449;-77
2022/01/25 07:12:41;;;;;;;5.47;4.97;;;3.00;74.90;;;;;;5000013;28;20468;-76
2022/01/25 07:15:08;;;;;;;4.90;4.27;;;3.00;74.80;;;;;;4999853;28;20452;-76
2022/01/25 07:17:36;;;;;;;5.60;4.50;;;3.00;75.00;;;;;;4999169;28;20452;-77
2022/01/25 07:20:06;;;;;;;4.80;4.30;;;3.00;75.20;;;;;;4999482;28;20459;-77
2022/01/25 07:22:33;;;;;;;5.33;4.83;;;3.10;75.50;;;;;;4999382;28;20504;-77
2022/01/25 07:25:00;;;;;;;7.20;4.97;;;3.40;75.40;;;;;;4999390;28;20949;-78
2022/01/25 07:27:27;;;;;;;5.07;4.57;;;4.00;75.10;;;;;;5000144;28;20529;-77
2022/01/25 07:29:53;;;;;;;5.07;4.10;;;4.80;72.70;;;;;;5000058;28;20449;-77
2022/01/25 07:32:20;;;;;;;5.10;4.60;;;5.70;69.60;;;;;;4999435;28;21007;-78
2022/01/25 07:34:49;;;;;;;4.13;3.73;;;6.60;67.00;;;;;;4997327;28;20467;-77
2022/01/25 07:37:16;;;;;;;4.30;3.73;;;7.60;64.20;;;;;;4994827;28;20944;-77
2022/01/25 07:39:44;;;;;;;4.03;3.63;;;8.60;61.40;;;;;;4994626;28;20926;-78
2022/01/25 07:42:11;;;;;;;3.87;3.40;;;9.50;59.10;;;;;;4994669;28;20489;-77
2022/01/25 07:44:39;;;;;;;4.07;3.67;;;10.40;56.60;;;;;;4994992;28;20452;-78
2022/01/25 07:47:06;;;;;;;4.50;4.10;;;11.20;54.30;;;;;;4995408;28;20457;-78
2022/01/25 07:49:33;;;;;;;3.90;3.50;;;11.90;52.60;;;;;;4994984;28;20489;-78
2022/01/25 07:52:01;;;;;;;4.73;4.33;;;12.30;51.00;;;;;;4994833;28;20469;-78
2022/01/25 07:54:28;;;;;;;4.10;3.70;;;12.10;50.10;;;;;;4995017;28;20449;-78
2022/01/25 07:56:55;;;;;;;4.03;3.60;;;10.80;52.10;;;;;;4994873;28;20460;-78
2022/01/25 07:59:22;;;;;;;4.53;4.10;;;10.00;54.10;;;;;;4994897;28;20503;-78
2022/01/25 08:01:50;;;;;;;4.97;4.50;;;9.80;54.60;;;;;;4994109;28;20857;-78
2022/01/25 08:04:17;;;;;;;5.27;4.77;;;9.10;55.50;;;;;;4994606;28;20902;-78
2022/01/25 08:06:44;;;;;;;6.27;5.67;;;8.40;57.10;;;;;;4994474;28;20576;-78
2022/01/25 08:09:12;;;;;;;5.60;5.10;;;8.20;58.60;;;;;;4994165;28;21011;-78
2022/01/25 08:11:39;;;;;;;5.50;5.00;;;9.00;58.00;;;;;;4994504;28;20523;-78
2022/01/25 08:14:13;;;;;;;5.03;4.53;;;8.90;57.60;;;;;;4994479;28;20452;-78
2022/01/25 08:16:40;;;;;;;5.33;4.83;;;9.50;56.50;;;;;;4995803;28;20445;-78
2022/01/25 08:19:07;;;;;;;5.83;5.33;;;10.80;54.10;;;;;;5001048;28;20453;-78
2022/01/25 08:21:33;;;;;;;5.90;5.40;;;11.80;51.80;;;;;;4994559;28;20999;-78
2022/01/25 08:24:00;;;;;;;5.40;4.93;;;12.50;49.80;;;;;;4994501;28;20453;-77
2022/01/25 08:26:28;;;;;;;5.20;4.70;;;13.20;49.20;;;;;;4994407;28;20805;-78
2022/01/25 08:28:55;;;;;;;4.90;4.40;;;14.30;47.20;;;;;;4994819;28;20473;-78
2022/01/25 08:31:22;;;;;;;5.40;4.90;;;14.50;45.90;;;;;;4994294;28;20511;-78
2022/01/25 08:33:49;;;;;;;5.10;4.70;;;14.70;46.40;;;;;;4994679;28;20508;-78
2022/01/25 08:36:16;;;;;;;4.37;3.97;;;14.20;46.90;;;;;;4994042;28;20949;-77
2022/01/25 08:38:43;;;;;;;4.20;3.67;;;14.80;46.50;;;;;;4993914;28;20457;-77
2022/01/25 08:41:09;;;;;;;4.47;3.83;;;15.40;45.40;;;;;;4993955;28;20492;-78
2022/01/25 08:43:37;;;;;;;4.13;3.73;;;15.70;44.60;;;;;;4993996;28;20511;-78
2022/01/25 08:46:04;;;;;;;4.73;4.30;;;15.30;44.40;;;;;;4996064;28;20456;-78
2022/01/25 08:48:31;;;;;;;4.17;3.77;;;14.50;45.40;;;;;;4997690;28;20876;-77
2022/01/25 08:50:58;;;;;;;4.50;4.10;;;13.60;46.70;;;;;;4997969;28;20477;-77
2022/01/25 08:53:25;;;;;;;4.27;3.87;;;12.50;48.10;;;;;;4998718;28;20844;-77
2022/01/25 08:55:52;;;;;;;4.20;3.80;;;11.80;50.10;;;;;;4998056;28;20449;-77
2022/01/25 08:58:19;;;;;;;4.70;4.27;;;10.80;52.50;;;;;;4997823;28;20503;-76
2022/01/25 09:00:47;;;;;;;4.80;4.33;;;9.20;55.80;;;;;;4997469;28;20492;-77
2022/01/25 09:03:14;;;;;;;4.23;3.83;;;8.10;59.30;;;;;;4997783;28;20440;-77
2022/01/25 09:05:40;;;;;;;4.43;4.03;;;7.90;60.40;;;;;;4997717;28;20449;-77
2022/01/25 09:08:09;;;;;;;4.73;4.30;;;7.90;60.90;;;;;;4997683;28;20453;-78
2022/01/25 09:10:36;;;;;;;4.20;3.80;;;7.70;61.50;;;;;;4997533;28;20476;-77
2022/01/25 09:13:03;;;;;;;4.50;4.10;;;7.40;62.20;;;;;;4997622;28;20449;-77
2022/01/25 09:15:30;;;;;;;4.80;4.00;;;7.10;63.20;;;;;;4997491;28;20453;-77
2022/01/25 09:17:58;;;;;;;4.60;4.10;;;7.00;63.70;;;;;;4997444;28;20452;-77
2022/01/25 09:20:25;;;;;;;4.30;3.90;;;7.00;64.20;;;;;;4997348;28;20453;-77
2022/01/25 09:22:52;;;;;;;4.60;4.10;;;6.90;64.70;;;;;;4997206;28;20449;-77
2022/01/25 09:25:19;;;;;;;4.77;4.27;;;6.70;65.60;;;;;;4997400;28;20519;-76
2022/01/25 09:27:46;;;;;;;4.90;4.40;;;6.30;67.70;;;;;;4997477;28;20523;-77
2022/01/25 09:30:13;;;;;;;5.27;4.77;;;6.00;68.20;;;;;;4997288;28;20959;-77
2022/01/25 09:32:39;;;;;;;4.40;3.70;;;5.80;69.00;;;;;;4999326;28;20465;-77
2022/01/25 09:35:08;;;;;;;5.07;4.03;;;5.60;70.70;;;;;;5003649;28;20481;-77
2022/01/25 09:37:35;;;;;;;5.00;4.43;;;5.70;70.60;;;;;;5017001;28;20472;-77
2022/01/25 09:40:02;;;;;;;4.80;4.30;;;5.80;70.80;;;;;;5009053;28;20470;-77
2022/01/25 09:42:30;;;;;;;4.10;3.67;;;5.90;70.70;;;;;;5001163;28;20488;-77
2022/01/25 09:44:58;;;;;;;4.93;4.43;;;5.90;70.50;;;;;;5002340;28;20449;-77
2022/01/25 09:47:25;;;;;;;4.00;3.60;;;6.00;69.70;;;;;;5002280;28;20804;-78
2022/01/25 09:49:52;;;;;;;4.40;4.00;;;6.00;70.70;;;;;;5000903;28;20820;-77
2022/01/25 09:52:20;;;;;;;4.87;4.20;;;6.00;70.90;;;;;;5002126;28;20469;-77
2022/01/25 09:54:54;;;;;;;4.23;3.80;;;6.20;69.80;;;;;;5002519;28;20449;-77
2022/01/25 09:57:21;;;;;;;4.20;3.70;;;5.90;70.30;;;;;;5001259;28;20476;-77
2022/01/25 09:59:48;;;;;;;5.07;4.30;;;5.80;70.90;;;;;;4997893;28;20449;-77
2022/01/25 10:02:36;;;;;;;4.70;4.03;;;5.60;71.00;;;;;;4996415;28;20915;-77
2022/01/25 10:05:16;;;;;;;4.87;3.60;;;5.30;71.80;;;;;;4997247;28;20437;-78
2022/01/25 10:07:54;;;;;;;5.00;3.63;;;5.40;73.10;;;;;;4996386;28;20905;-78
2022/01/25 10:10:21;;;;;;;5.10;4.10;;;5.60;72.90;;;;;;4996251;28;20912;-77
2022/01/25 10:12:47;;;;;;;4.97;4.10;;;5.80;72.40;;;;;;4996507;28;20472;-77
2022/01/25 10:15:14;;;;;;;5.03;4.53;;;6.00;71.60;;;;;;4997906;28;20453;-77
2022/01/25 10:17:43;;;;;;;4.90;4.00;;;5.90;71.90;;;;;;4996410;28;20870;-77
2022/01/25 10:20:26;;;;;;;5.43;4.93;;;5.60;73.20;;;;;;4996276;28;20457;-76
2022/01/25 10:22:54;;;;;;;4.53;3.87;;;5.50;73.50;;;;;;4996219;28;20569;-76
2022/01/25 10:25:30;;;;;;;3.80;3.03;;;5.80;72.40;;;;;;4996001;28;20952;-76
2022/01/25 10:28:02;;;;;;;4.30;3.90;;;6.00;71.00;;;;;;4996577;28;20438;-77
2022/01/25 10:30:32;;;;;;;4.10;3.70;;;6.00;70.60;;;;;;4996227;28;20465;-76
2022/01/25 10:33:02;;;;;;;3.97;3.57;;;6.10;71.00;;;;;;4996095;28;20437;-77
2022/01/25 10:35:29;;;;;;;4.13;3.60;;;6.20;70.40;;;;;;4995809;28;20442;-77
2022/01/25 10:37:57;;;;;;;4.53;4.13;;;6.30;69.70;;;;;;4996102;28;20503;-77
2022/01/25 10:40:38;;;;;;;4.87;4.37;;;6.30;70.60;;;;;;4995593;28;20826;-76
2022/01/25 10:43:13;;;;;;;4.80;4.20;;;6.30;71.00;;;;;;4995864;28;20485;-76
2022/01/25 10:45:40;;;;;;;4.33;3.87;;;6.00;71.90;;;;;;4995895;28;20436;-77
2022/01/25 10:48:07;;;;;;;3.97;3.53;;;6.00;71.70;;;;;;4995848;28;20504;-77
2022/01/25 10:50:35;;;;;;;4.20;3.50;;;5.90;72.40;;;;;;4995442;28;20999;-77
2022/01/25 10:53:08;;;;;;;4.33;3.50;;;5.90;72.20;;;;;;4995744;28;20441;-77
2022/01/25 10:55:39;;;;;;;4.70;3.80;;;5.80;72.10;;;;;;4995774;28;20437;-77
2022/01/25 10:58:07;;;;;;;4.60;3.93;;;6.00;71.90;;;;;;4995411;28;20956;-77
2022/01/25 11:00:37;;;;;;;4.17;3.77;;;5.80;72.40;;;;;;4995536;28;20461;-77
2022/01/25 11:03:05;;;;;;;4.83;4.00;;;5.80;72.30;;;;;;4995465;28;20524;-77
2022/01/25 11:05:33;;;;;;;4.57;4.10;;;6.20;72.90;;;;;;4995450;28;20453;-77
2022/01/25 11:08:12;;;;;;;4.57;3.77;;;6.40;71.70;;;;;;4995647;28;20453;-77
2022/01/25 11:10:47;;;;;;;4.87;4.00;;;6.60;70.80;;;;;;4995528;28;20437;-77
2022/01/25 11:13:33;;;;;;;4.10;3.70;;;6.50;70.40;;;;;;4995537;28;20496;-77
2022/01/25 11:16:03;;;;;;;4.80;4.30;;;6.60;70.70;;;;;;4995419;28;20442;-77
2022/01/25 11:18:31;;;;;;;4.37;3.93;;;6.70;71.20;;;;;;4995616;28;20449;-77
2022/01/25 11:21:02;;;;;;;4.40;3.93;;;6.80;70.10;;;;;;4994891;28;20505;-77
2022/01/25 11:23:32;;;;;;;4.07;3.60;;;6.60;69.80;;;;;;4995514;28;20461;-77
2022/01/25 11:26:01;;;;;;;5.10;4.60;;;6.60;70.90;;;;;;4995216;28;20472;-77
2022/01/25 11:28:30;;;;;;;5.60;3.97;;;6.40;70.90;;;;;;4995182;28;20457;-76
2022/01/25 11:30:58;;;;;;;5.53;4.23;;;6.50;71.40;;;;;;4995052;28;20552;-77
2022/01/25 11:33:25;;;;;;;4.73;3.90;;;6.60;71.90;;;;;;4995168;28;20475;-77
2022/01/25 11:35:52;;;;;;;4.80;4.17;;;6.70;71.10;;;;;;4995172;28;20499;-77
2022/01/25 11:38:33;;;;;;;5.27;4.77;;;6.60;71.10;;;;;;4995047;28;20444;-77
2022/01/25 11:40:59;;;;;;;5.70;5.10;;;6.50;71.10;;;;;;4994852;28;20508;-77
2022/01/25 11:43:26;;;;;;;5.13;4.70;;;6.40;71.80;;;;;;4994812;28;20477;-77
2022/01/25 11:46:03;;;;;;;4.40;3.97;;;6.40;71.70;;;;;;4998052;28;20861;-76
2022/01/25 11:48:40;;;;;;;4.87;4.43;;;6.60;71.40;;;;;;4997996;28;20932;-77
2022/01/25 11:51:13;;;;;;;5.80;4.10;;;6.70;70.60;;;;;;4997905;28;20468;-77
2022/01/25 11:53:44;;;;;;;5.03;4.53;;;6.60;69.80;;;;;;4996519;28;20437;-75
2022/01/25 11:56:12;;;;;;;6.80;4.80;;;6.60;70.50;;;;;;4995776;28;20434;-76
2022/01/25 11:58:40;;;;;;;5.20;4.70;;;6.60;71.30;;;;;;4996256;28;20488;-76
2022/01/25 12:01:15;;;;;;;6.07;5.47;;;6.60;70.20;;;;;;4996906;28;20477;-76
2022/01/25 12:03:45;;;;;;;5.07;4.63;;;6.70;71.10;;;;;;4999953;28;20456;-76
2022/01/25 12:06:18;;;;;;;7.50;5.33;;;7.00;70.60;;;;;;4996907;28;20445;-79
2022/01/25 12:08:53;;;;;;;5.60;5.10;;;7.10;69.60;;;;;;4997530;28;20521;-76
2022/01/25 12:11:31;;;;;;;6.40;4.33;;;7.00;70.00;;;;;;4997352;28;20465;-76
2022/01/25 12:14:16;;;;;;;6.07;5.47;;;7.40;69.90;;;;;;4996792;28;20516;-76
2022/01/25 12:16:45;;;;;;;6.23;5.63;;;7.90;68.60;;;;;;4996076;28;20422;-78
2022/01/25 12:19:13;;;;;;;5.33;4.83;;;8.20;67.50;;;;;;4996525;28;20445;-77
2022/01/25 12:22:00;;;;;;;4.60;4.10;;;8.80;65.80;;;;;;4995072;28;20472;-77
2022/01/25 12:24:33;;;;;;;5.67;5.17;;;9.80;63.40;;;;;;4995021;28;20452;-77
2022/01/25 12:27:07;;;;;;;5.23;4.73;;;10.60;61.00;;;;;;4995867;28;20473;-77
2022/01/25 12:29:37;;;;;;;5.57;4.97;;;11.10;59.10;;;;;;4996230;28;20464;-77
2022/01/25 12:32:27;;;;;;;6.07;5.27;;;11.20;58.70;;;;;;4996074;28;20965;-77
2022/01/25 12:35:02;;;;;;;4.53;4.07;;;12.10;57.30;;;;;;4995455;28;20442;-77
2022/01/25 12:37:55;;;;;;;5.20;4.67;;;14.30;53.80;;;;;;4995239;28;20429;-77
2022/01/25 12:40:50;;;;;;;4.90;4.43;;;17.80;47.80;;;;;;4995003;28;20461;-77
2022/01/25 12:43:20;;;;;;;4.87;4.37;;;20.70;41.90;;;;;;4994028;28;20540;-77
2022/01/25 12:45:51;;;;;;;5.20;4.70;;;23.40;37.40;;;;;;4994222;28;20857;-77
2022/01/25 12:48:20;;;;;;;5.60;5.10;;;24.90;35.40;;;;;;4995358;28;20445;-77
2022/01/25 12:50:51;;;;;;;5.60;5.13;;;26.20;34.20;;;;;;4994644;28;20470;-77
2022/01/25 12:53:20;;;;;;;4.90;4.50;;;27.20;32.50;;;;;;4997898;28;20941;-77
2022/01/25 12:55:50;;;;;;;5.63;5.13;;;27.60;31.40;;;;;;4994814;28;20479;-78
2022/01/25 12:58:20;;;;;;;5.90;5.40;;;28.40;30.80;;;;;;4994911;28;20500;-77
2022/01/25 13:00:53;;;;;;;5.10;4.70;;;28.30;31.20;;;;;;4994013;28;20487;-78
2022/01/25 13:03:26;;;;;;;5.10;4.70;;;28.90;30.30;;;;;;4994026;28;20553;-78
2022/01/25 13:05:55;;;;;;;5.67;5.17;;;29.50;29.30;;;;;;4994077;28;20441;-78
2022/01/25 13:08:26;;;;;;;6.10;5.60;;;29.90;29.10;;;;;;4993843;28;20453;-78
2022/01/25 13:11:12;;;;;;;5.23;4.83;;;30.60;28.60;;;;;;4993978;28;20529;-78
2022/01/25 13:13:56;;;;;;;5.73;5.23;;;31.20;27.80;;;;;;4994217;28;20430;-78
2022/01/25 13:16:40;;;;;;;5.00;4.60;;;31.40;27.00;;;;;;4994998;28;20430;-78
2022/01/25 13:19:07;;;;;;;5.80;5.30;;;30.20;28.40;;;;;;4994155;28;20905;-78
2022/01/25 13:21:39;;;;;;;5.47;5.07;;;30.40;28.40;;;;;;4994854;28;20876;-78
2022/01/25 13:24:09;;;;;;;5.50;5.10;;;30.40;28.30;;;;;;4996645;28;20485;-78
2022/01/25 13:26:48;;;;;;;5.23;4.83;;;30.70;27.90;;;;;;4996616;28;20449;-78
2022/01/25 13:32:13;;;;;;;5.63;5.13;;;29.40;28.50;;;;;;4994254;28;20459;-78
2022/01/25 13:34:40;;;;;;;5.87;5.37;;;27.50;30.10;;;;;;4999074;28;20487;-78
2022/01/25 13:37:18;;;;;;;5.67;5.17;;;26.20;31.60;;;;;;4998339;28;21019;-78
2022/01/25 13:39:54;;;;;;;5.37;4.87;;;26.60;31.60;;;;;;4997486;28;20803;-78
2022/01/25 13:42:29;;;;;;;4.90;4.50;;;27.30;31.10;;;;;;4997438;28;20528;-78
2022/01/25 13:47:57;;;;;;;5.20;4.70;;;28.60;29.50;;;;;;4999130;28;20825;-78
2022/01/25 13:50:25;;;;;;;4.80;4.40;;;29.00;29.20;;;;;;5000041;28;20456;-78
2022/01/25 13:52:52;;;;;;;4.60;4.20;;;29.70;28.40;;;;;;5001300;28;20471;-78
2022/01/25 13:55:19;;;;;;;4.73;4.33;;;30.40;27.80;;;;;;5000707;28;20545;-78
2022/01/25 13:57:47;;;;;;;4.93;4.53;;;30.70;27.50;;;;;;4997618;28;20449;-78
2022/01/25 14:00:14;;;;;;;5.40;5.00;;;31.20;27.10;;;;;;4997589;28;20445;-78
2022/01/25 14:02:41;;;;;;;5.20;4.80;;;31.50;26.70;;;;;;4996416;28;20484;-78
2022/01/25 14:05:08;;;;;;;5.03;4.63;;;31.70;26.20;;;;;;4997164;28;20539;-78
2022/01/25 14:07:36;;;;;;;5.87;5.37;;;31.40;26.60;;;;;;4996838;28;20817;-77
2022/01/25 14:10:07;;;;;;;5.80;5.30;;;30.60;26.70;;;;;;4996649;28;20548;-78
2022/01/25 14:23:45;;;;;;;4.77;4.37;;;27.80;29.80;;;;;;4996321;28;20842;-78
2022/01/25 14:26:13;;;;;;;6.17;5.67;;;27.80;30.00;;;;;;4996503;28;20480;-78
2022/01/25 14:28:42;;;;;;;6.17;5.60;;;27.90;29.70;;;;;;4996757;28;20449;-78
2022/01/25 14:31:17;;;;;;;6.40;5.90;;;27.60;30.10;;;;;;4996018;28;20839;-78
2022/01/25 14:33:51;;;;;;;5.53;5.13;;;27.20;30.20;;;;;;4995962;28;20842;-78
2022/01/25 14:36:19;;;;;;;5.73;5.23;;;27.20;30.60;;;;;;4995866;28;20952;-77
2022/01/25 14:38:47;;;;;;;5.50;5.00;;;27.50;30.50;;;;;;4995965;28;20453;-78
2022/01/25 14:41:16;;;;;;;6.00;5.50;;;27.80;30.10;;;;;;4995702;28;20972;-78
2022/01/25 14:43:47;;;;;;;5.73;5.23;;;27.70;30.00;;;;;;4995607;28;20524;-78
2022/01/25 14:46:18;;;;;;;6.23;5.63;;;27.40;30.10;;;;;;4996061;28;20440;-78
2022/01/25 14:48:48;;;;;;;5.50;5.00;;;25.80;31.70;;;;;;4995984;28;20868;-78
2022/01/25 14:51:14;;;;;;;6.43;5.83;;;24.30;33.20;;;;;;4995831;28;20481;-78
2022/01/25 14:53:44;;;;;;;6.00;5.50;;;21.60;36.20;;;;;;4995706;28;20444;-78
2022/01/25 14:56:13;;;;;;;6.43;5.93;;;20.10;38.50;;;;;;4995752;28;20456;-77
2022/01/25 15:01:31;;;;;;;6.53;6.03;;;16.50;44.20;;;;;;4995266;28;20999;-77
2022/01/25 15:03:58;;;;;;;6.63;6.03;;;15.50;46.00;;;;;;4995703;28;20512;-77
2022/01/25 15:06:25;;;;;;;7.17;6.57;;;14.90;47.50;;;;;;4995109;28;20507;-77
2022/01/25 15:08:54;;;;;;;6.87;6.27;;;14.70;48.00;;;;;;4995386;28;20539;-77
2022/01/25 15:11:23;;;;;;;5.90;5.40;;;14.40;48.50;;;;;;4995437;28;20500;-76
2022/01/25 15:13:55;;;;;;;6.40;5.80;;;13.50;50.40;;;;;;4995913;28;20495;-75
2022/01/25 15:16:22;;;;;;;6.53;5.93;;;13.10;51.20;;;;;;4995407;28;20430;-76
2022/01/25 15:18:50;;;;;;;6.93;6.33;;;12.60;52.40;;;;;;4995497;28;20471;-76
2022/01/25 15:21:17;;;;;;;7.80;7.10;;;12.20;53.50;;;;;;4995416;28;20519;-77
2022/01/25 15:23:47;;;;;;;9.17;8.37;;;11.80;54.50;;;;;;4995280;28;20517;-76
2022/01/25 15:26:16;;;;;;;7.77;7.07;;;11.40;55.80;;;;;;4995480;28;20507;-77
2022/01/25 15:28:47;;;;;;;6.57;5.97;;;11.00;56.70;;;;;;4995087;28;20543;-76
2022/01/25 15:31:16;;;;;;;7.50;6.80;;;10.70;57.30;;;;;;4995170;28;20480;-77
2022/01/25 15:33:44;;;;;;;7.90;7.20;;;10.50;58.20;;;;;;4995093;28;20449;-77
2022/01/25 15:36:15;;;;;;;6.50;5.90;;;10.30;58.80;;;;;;4995148;28;20455;-77
2022/01/25 15:38:42;;;;;;;7.33;6.73;;;10.10;59.50;;;;;;4994757;28;20789;-76
2022/01/25 15:41:10;;;;;;;6.93;6.33;;;10.00;60.10;;;;;;4994795;28;21100;-76
2022/01/25 15:43:47;;;;;;;6.77;6.13;;;9.80;60.50;;;;;;4994941;28;20520;-76
2022/01/25 15:46:21;;;;;;;6.80;6.20;;;9.70;61.00;;;;;;4994824;28;20925;-76
2022/01/25 15:48:48;;;;;;;7.37;6.67;;;9.40;61.80;;;;;;4995035;28;20547;-76
2022/01/25 15:51:16;;;;;;;7.97;7.27;;;9.30;62.10;;;;;;4994975;28;20475;-76
2022/01/25 15:53:42;;;;;;;7.70;7.00;;;9.20;62.60;;;;;;4994920;28;20463;-77
2022/01/25 15:56:09;;;;;;;7.33;6.63;;;9.10;63.10;;;;;;4994702;28;20495;-76
2022/01/25 15:58:36;;;;;;;7.13;6.50;;;9.00;63.20;;;;;;4995018;28;20869;-77
2022/01/25 16:01:03;;;;;;;6.40;5.80;;;8.90;63.40;;;;;;4994771;28;20492;-77
2022/01/25 16:03:32;;;;;;;6.93;6.20;;;8.70;63.80;;;;;;4994619;28;20491;-77
2022/01/25 16:05:59;;;;;;;6.80;6.20;;;8.60;64.20;;;;;;4994658;28;20449;-76
2022/01/25 16:08:27;;;;;;;8.80;8.00;;;8.50;64.50;;;;;;4994835;28;20449;-77
2022/01/25 16:10:54;;;;;;;7.80;7.10;;;8.40;64.70;;;;;;4994510;28;20531;-76
2022/01/25 16:13:21;;;;;;;6.97;6.37;;;8.30;65.10;;;;;;4994547;28;20521;-77
2022/01/25 16:15:48;;;;;;;8.63;7.83;;;8.20;65.40;;;;;;5020923;23;20559;-78
2022/01/25 16:18:15;;;;;;;7.33;6.57;;;8.10;65.60;;;;;;4995080;28;20457;-78
2022/01/25 16:20:42;;;;;;;7.63;6.87;;;7.90;65.90;;;;;;4995125;28;20453;-76
2022/01/25 16:23:10;;;;;;;6.77;6.17;;;7.80;66.10;;;;;;4993937;28;20491;-78
2022/01/25 16:25:38;;;;;;;7.50;6.83;;;7.70;66.60;;;;;;4994327;28;20481;-77
2022/01/25 16:28:06;;;;;;;8.23;7.53;;;7.50;67.20;;;;;;4993847;28;20858;-79
2022/01/25 16:30:35;;;;;;;8.50;7.80;;;7.40;67.60;;;;;;4994939;28;20499;-79
2022/01/25 16:33:01;;;;;;;8.20;7.50;;;7.20;68.10;;;;;;4994428;28;20549;-79
2022/01/25 16:35:29;;;;;;;7.70;6.90;;;7.10;68.50;;;;;;4994996;28;20472;-79
2022/01/25 16:37:55;;;;;;;8.53;7.83;;;7.00;68.70;;;;;;4995042;28;20457;-78
2022/01/25 16:40:23;;;;;;;9.40;8.60;;;6.90;68.60;;;;;;4994731;28;20457;-78
2022/01/25 16:42:51;;;;;;;9.30;8.50;;;6.90;68.80;;;;;;4995398;28;20881;-78
2022/01/25 16:45:19;;;;;;;8.10;7.40;;;6.80;69.20;;;;;;4999206;28;20477;-79
2022/01/25 16:47:47;;;;;;;8.30;7.60;;;6.60;69.50;;;;;;4996656;28;20537;-78
2022/01/25 16:50:15;;;;;;;9.03;8.23;;;6.40;70.00;;;;;;4996690;28;20957;-78
2022/01/25 16:52:42;;;;;;;9.30;8.40;;;6.30;70.30;;;;;;4995666;28;20433;-77
2022/01/25 16:55:11;;;;;;;8.50;7.70;;;6.20;71.10;;;;;;4996349;28;20469;-79
2022/01/25 16:57:38;;;;;;;9.40;8.50;;;6.00;71.90;;;;;;4995912;28;20476;-77
2022/01/25 17:00:11;;;;;;;8.53;7.73;;;5.90;72.30;;;;;;4996286;28;20449;-79
2022/01/25 17:02:40;;;;;;;9.77;8.80;;;5.90;72.40;;;;;;4997516;28;20948;-78
2022/01/25 17:05:08;;;;;;;8.40;7.60;;;5.90;72.50;;;;;;4997401;28;20485;-79
2022/01/25 17:07:35;;;;;;;9.50;8.70;;;5.90;73.10;;;;;;4999111;28;20462;-79
2022/01/25 17:10:02;;;;;;;9.43;8.53;;;5.80;73.40;;;;;;4999857;28;20453;-79
2022/01/25 17:12:29;;;;;;;9.70;8.80;;;5.80;73.20;;;;;;4999989;28;20453;-79
2022/01/25 17:14:55;;;;;;;8.70;7.80;;;5.70;73.50;;;;;;4999539;28;20480;-78
2022/01/25 17:17:23;;;;;;;9.60;8.70;;;5.70;73.70;;;;;;5000507;28;20877;-79
2022/01/25 17:19:50;;;;;;;8.73;7.93;;;5.70;73.40;;;;;;5002123;28;20445;-78
2022/01/25 17:22:17;;;;;;;12.40;9.10;;;5.70;73.30;;;;;;4998561;28;20465;-78
2022/01/25 17:24:43;;;;;;;9.50;8.50;;;5.60;73.90;;;;;;5001500;28;20516;-78
2022/01/25 17:27:10;;;;;;;10.10;9.10;;;5.60;73.50;;;;;;5001071;28;20448;-79
2022/01/25 17:29:37;;;;;;;9.53;8.73;;;5.60;73.90;;;;;;4999619;28;20525;-79
2022/01/25 17:32:04;;;;;;;13.30;10.13;;;5.50;74.00;;;;;;4999023;28;20495;-78
2022/01/25 17:34:33;;;;;;;9.43;8.60;;;5.50;74.00;;;;;;4998864;28;20449;-78
2022/01/25 17:37:00;;;;;;;11.40;10.30;;;5.50;74.00;;;;;;4998888;28;20784;-78
2022/01/25 17:39:28;;;;;;;11.50;9.57;;;5.50;74.00;;;;;;4999146;28;20448;-78
2022/01/25 17:41:54;;;;;;;11.27;9.80;;;5.50;74.10;;;;;;4999556;28;20515;-78